Time;durP1;ratioP1;P1;durP2;ratioP2;P2;SDS_P1;SDS_P2;PMS_P1;PMS_P2;Temp;Humidity;BMP_temperature;BMP_pressure;BME280_temperature;BME280_humidity;BME280_pressure;Samples;Min_cycle;Max_cycle;Signal;HPM_P1;HPM_P2
2022/09/12 00:01:12;;;;;;;7.78;5.03;;;;;;;15.47;87.86;100180.22;5014685;28;20030;-70
2022/09/12 00:03:39;;;;;;;4.28;3.88;;;;;;;15.47;87.53;100179.41;5015892;28;20034;-70
2022/09/12 00:06:10;;;;;;;4.30;3.50;;;;;;;15.47;86.94;100179.41;5016357;28;20033;-71
2022/09/12 00:08:36;;;;;;;4.22;3.83;;;;;;;15.51;87.08;100192.28;5014601;28;20476;-69
2022/09/12 00:11:09;;;;;;;4.07;3.63;;;;;;;15.50;87.30;100185.13;5007304;28;20049;-70
2022/09/12 00:13:36;;;;;;;6.03;3.88;;;;;;;15.53;86.79;100184.50;5013337;28;20369;-70
2022/09/12 00:16:03;;;;;;;4.47;3.45;;;;;;;15.53;86.66;100181.75;4997729;28;20103;-70
2022/09/12 00:18:29;;;;;;;4.82;3.17;;;;;;;15.54;86.94;100185.34;4997203;28;20030;-71
2022/09/12 00:20:54;;;;;;;3.78;3.38;;;;;;;15.51;86.80;100184.00;5013025;28;20040;-72
2022/09/12 00:23:20;;;;;;;4.50;3.80;;;;;;;15.50;86.53;100179.63;5020405;28;20124;-71
2022/09/12 00:25:47;;;;;;;3.25;2.95;;;;;;;15.49;86.51;100177.16;5002717;28;20041;-71
2022/09/12 00:28:15;;;;;;;3.85;3.10;;;;;;;15.46;86.65;100178.63;5014223;28;20018;-72
2022/09/12 00:30:49;;;;;;;3.58;2.92;;;;;;;15.42;86.36;100166.56;5022921;28;20431;-71
2022/09/12 00:33:16;;;;;;;3.97;3.58;;;;;;;15.44;86.33;100161.56;5013933;28;20379;-70
2022/09/12 00:35:47;;;;;;;4.78;3.42;;;;;;;15.45;86.63;100159.59;5015566;28;20040;-69
2022/09/12 00:38:14;;;;;;;4.35;3.13;;;;;;;15.49;86.20;100157.88;5019460;28;20033;-70
2022/09/12 00:40:41;;;;;;;3.17;2.80;;;;;;;15.58;85.94;100157.97;5017017;28;20101;-71
2022/09/12 00:43:13;;;;;;;4.85;3.25;;;;;;;15.63;85.90;100158.69;5009428;28;20494;-70
2022/09/12 00:45:41;;;;;;;3.88;2.90;;;;;;;15.74;85.66;100148.28;5012992;28;20057;-73
2022/09/12 00:48:19;;;;;;;3.17;2.70;;;;;;;15.86;84.93;100151.38;5026708;28;20039;-74
2022/09/12 00:50:45;;;;;;;2.20;2.00;;;;;;;15.98;84.83;100152.78;5020023;28;20432;-70
2022/09/12 00:53:11;;;;;;;1.70;1.60;;;;;;;16.07;84.59;100139.09;5005105;28;20046;-71
2022/09/12 00:55:47;;;;;;;2.60;2.05;;;;;;;16.13;84.25;100149.69;4999480;28;20033;-71
2022/09/12 00:58:27;;;;;;;2.20;2.00;;;;;;;16.18;84.20;100144.06;5019796;28;20026;-71
2022/09/12 01:00:52;;;;;;;2.45;1.88;;;;;;;16.25;84.18;100142.81;5017053;28;20059;-71
2022/09/12 01:03:21;;;;;;;2.92;2.30;;;;;;;16.26;83.70;100138.94;5017005;28;20109;-70
2022/09/12 01:05:57;;;;;;;3.25;2.70;;;;;;;16.23;83.91;100132.09;5017830;28;20093;-71
2022/09/12 01:08:24;;;;;;;3.40;2.78;;;;;;;16.21;84.26;100131.59;5015874;28;20026;-71
2022/09/12 01:10:49;;;;;;;4.10;2.80;;;;;;;16.20;83.52;100139.03;5023872;28;20034;-71
2022/09/12 01:13:15;;;;;;;3.60;2.83;;;;;;;16.18;83.76;100133.03;5014486;28;20388;-71
2022/09/12 01:15:40;;;;;;;4.05;3.28;;;;;;;16.14;83.88;100134.75;4999169;28;20395;-71
2022/09/12 01:18:15;;;;;;;3.33;2.78;;;;;;;16.12;84.25;100134.28;5013027;28;20122;-71
2022/09/12 01:21:02;;;;;;;2.60;2.40;;;;;;;16.10;83.92;100130.19;5018609;28;20029;-71
2022/09/12 01:23:42;;;;;;;5.32;3.88;;;;;;;16.05;83.98;100129.16;5017832;28;20026;-72
2022/09/12 01:26:26;;;;;;;7.63;6.57;;;;;;;15.99;83.90;100118.53;5017114;28;20058;-72
2022/09/12 01:28:54;;;;;;;10.07;7.28;;;;;;;15.92;84.87;100113.47;5017298;28;20026;-71
2022/09/12 01:31:23;;;;;;;11.18;7.63;;;;;;;15.85;84.96;100111.13;5014553;28;20029;-72
2022/09/12 01:34:16;;;;;;;10.50;6.22;;;;;;;15.81;85.42;100112.91;5021072;28;20029;-72
2022/09/12 01:37:15;;;;;;;10.10;6.90;;;;;;;15.75;86.35;100108.56;5013281;28;20100;-72
2022/09/12 01:39:55;;;;;;;8.73;6.68;;;;;;;15.71;86.79;100102.03;5015572;28;20036;-72
2022/09/12 01:42:44;;;;;;;8.07;6.57;;;;;;;15.68;86.85;100102.66;5014422;28;20103;-71
2022/09/12 01:45:23;;;;;;;7.18;5.63;;;;;;;15.64;86.97;100093.38;5011310;28;20104;-73
2022/09/12 01:47:55;;;;;;;10.07;7.72;;;;;;;15.62;87.29;100098.38;5014180;28;20065;-72
2022/09/12 01:50:28;;;;;;;15.43;9.93;;;;;;;15.58;87.50;100091.84;5005377;28;20101;-71
2022/09/12 01:53:03;;;;;;;13.27;10.15;;;;;;;15.53;87.64;100090.00;4996444;28;20034;-72
2022/09/12 01:55:37;;;;;;;12.38;9.65;;;;;;;15.51;88.26;100084.81;4996501;28;20026;-71
2022/09/12 01:58:08;;;;;;;15.90;10.50;;;;;;;15.51;88.47;100084.81;4997781;28;20022;-71
2022/09/12 02:00:42;;;;;;;9.38;8.23;;;;;;;15.48;88.98;100076.34;4997334;28;20048;-70
2022/09/12 02:03:13;;;;;;;15.35;10.35;;;;;;;15.45;89.29;100083.28;5001447;28;20037;-70
2022/09/12 02:05:46;;;;;;;13.45;9.40;;;;;;;15.44;90.22;100084.41;5017646;28;20092;-70
2022/09/12 02:08:41;;;;;;;11.82;9.15;;;;;;;15.44;90.27;100080.84;5013628;28;20014;-70
2022/09/12 02:11:10;;;;;;;13.05;8.90;;;;;;;15.43;90.47;100080.00;5013069;28;20041;-71
2022/09/12 02:13:47;;;;;;;13.70;9.45;;;;;;;15.44;90.96;100076.13;5016226;28;20032;-70
2022/09/12 02:16:23;;;;;;;12.57;8.52;;;;;;;15.45;90.55;100069.50;5018797;28;20514;-70
2022/09/12 02:18:56;;;;;;;9.13;7.57;;;;;;;15.51;90.47;100076.53;4992406;28;20022;-72
2022/09/12 02:21:25;;;;;;;11.95;8.50;;;;;;;15.49;90.12;100065.03;5012859;28;20029;-71
2022/09/12 02:23:58;;;;;;;17.63;10.43;;;;;;;15.50;90.19;100069.38;5016327;28;20018;-70
2022/09/12 02:26:40;;;;;;;14.80;10.60;;;;;;;15.51;90.09;100070.22;4999035;28;20026;-69
2022/09/12 02:29:06;;;;;;;13.45;8.88;;;;;;;15.51;90.49;100075.72;5011362;28;20014;-71
2022/09/12 02:31:34;;;;;;;12.82;8.98;;;;;;;15.49;90.64;100078.81;4966061;28;20034;-69
2022/09/12 02:34:18;;;;;;;9.25;7.60;;;;;;;15.48;90.66;100073.59;5016896;28;20044;-71
2022/09/12 02:37:06;;;;;;;12.25;8.65;;;;;;;15.46;90.71;100073.91;4999294;28;20030;-70
2022/09/12 02:39:32;;;;;;;14.95;9.48;;;;;;;15.43;90.53;100074.50;4997253;28;20076;-71
2022/09/12 02:42:00;;;;;;;9.25;6.93;;;;;;;15.42;90.44;100061.88;4981215;28;20038;-72
2022/09/12 02:44:28;;;;;;;8.45;7.13;;;;;;;15.39;90.65;100062.47;4998131;28;20080;-71
2022/09/12 02:46:59;;;;;;;7.45;6.35;;;;;;;15.42;90.86;100072.03;4999418;28;20038;-71
2022/09/12 02:49:25;;;;;;;10.18;7.28;;;;;;;15.42;90.47;100066.53;5010556;28;20445;-70
2022/09/12 02:51:51;;;;;;;6.53;5.55;;;;;;;15.37;90.08;100053.69;4975422;28;20061;-71
2022/09/12 02:54:18;;;;;;;11.68;7.97;;;;;;;15.38;90.30;100055.34;4964707;28;20021;-71
2022/09/12 02:56:45;;;;;;;12.85;9.25;;;;;;;15.39;90.52;100056.97;5012612;28;20080;-72
2022/09/12 02:59:13;;;;;;;9.07;7.05;;;;;;;15.41;90.09;100051.16;4976761;28;20034;-72
2022/09/12 03:02:11;;;;;;;11.15;8.68;;;;;;;15.45;90.51;100052.97;5005233;28;20025;-72
2022/09/12 03:04:37;;;;;;;9.32;7.93;;;;;;;15.48;89.81;100046.84;4970841;28;20069;-72
2022/09/12 03:07:02;;;;;;;12.48;9.30;;;;;;;15.49;89.66;100044.91;5006207;28;21427;-72
2022/09/12 03:09:38;;;;;;;13.32;8.88;;;;;;;15.48;89.56;100049.59;5015253;28;20025;-71
2022/09/12 03:12:24;;;;;;;13.23;9.65;;;;;;;15.48;89.64;100043.28;4997228;28;20032;-71
2022/09/12 03:15:06;;;;;;;10.45;8.55;;;;;;;15.49;89.97;100033.88;5013419;28;20029;-72
2022/09/12 03:18:00;;;;;;;8.82;6.97;;;;;;;15.54;89.72;100034.59;4995045;28;20094;-71
2022/09/12 03:20:52;;;;;;;11.38;7.93;;;;;;;15.56;89.53;100033.47;4999510;28;20037;-73
2022/09/12 03:23:48;;;;;;;7.85;6.05;;;;;;;15.56;89.47;100027.97;5006091;28;20026;-73
2022/09/12 03:26:41;;;;;;;11.10;6.38;;;;;;;15.49;89.36;100026.44;4990616;28;20053;-72
2022/09/12 03:29:08;;;;;;;7.63;5.65;;;;;;;15.43;89.34;100030.41;4986707;28;20099;-72
2022/09/12 03:31:33;;;;;;;7.90;5.85;;;;;;;15.37;89.34;100028.91;4977611;28;20496;-72
2022/09/12 03:33:59;;;;;;;9.52;5.38;;;;;;;15.31;89.56;100032.88;4996702;28;20105;-71
2022/09/12 03:36:27;;;;;;;13.32;9.32;;;;;;;15.24;89.97;100027.78;5011421;28;20053;-72
2022/09/12 03:38:52;;;;;;;14.85;8.93;;;;;;;15.22;89.76;100034.75;5004054;28;20023;-72
2022/09/12 03:41:19;;;;;;;10.35;7.55;;;;;;;15.17;89.73;100041.97;4996822;28;20494;-72
2022/09/12 03:43:44;;;;;;;9.60;7.32;;;;;;;15.11;90.05;100029.44;5013896;28;20104;-72
2022/09/12 03:46:10;;;;;;;12.35;8.30;;;;;;;15.07;90.20;100022.91;4981344;28;20515;-72
2022/09/12 03:48:36;;;;;;;11.75;8.30;;;;;;;15.05;90.47;100019.63;5006444;28;20041;-70
2022/09/12 03:51:06;;;;;;;13.18;8.35;;;;;;;15.01;90.53;100018.63;5005943;28;20088;-70
2022/09/12 03:53:33;;;;;;;10.05;7.55;;;;;;;14.97;90.55;100018.41;5015912;28;20026;-70
2022/09/12 03:55:59;;;;;;;14.35;9.07;;;;;;;14.92;90.36;100014.94;5014257;28;20029;-70
2022/09/12 03:58:29;;;;;;;11.30;8.05;;;;;;;14.91;90.63;100007.78;5015963;28;20034;-70
2022/09/12 04:00:54;;;;;;;8.75;6.88;;;;;;;14.90;90.53;100001.47;5012212;28;20456;-71
2022/09/12 04:03:20;;;;;;;7.20;5.47;;;;;;;14.88;90.56;99998.22;5014438;28;20112;-70
2022/09/12 04:05:46;;;;;;;8.18;6.03;;;;;;;14.88;90.72;99997.38;4993381;28;20121;-70
2022/09/12 04:08:11;;;;;;;9.52;6.85;;;;;;;14.89;90.82;99994.34;5015688;28;20030;-71
2022/09/12 04:10:37;;;;;;;10.18;6.13;;;;;;;14.90;90.91;99989.66;5003881;28;20432;-70
2022/09/12 04:13:02;;;;;;;9.40;6.05;;;;;;;14.92;90.76;99995.66;4977888;28;20088;-70
2022/09/12 04:15:28;;;;;;;8.05;6.20;;;;;;;14.93;90.58;99994.56;4996711;28;20084;-72
2022/09/12 04:17:53;;;;;;;8.20;5.82;;;;;;;14.90;90.89;99989.66;4992620;28;20021;-72
2022/09/12 04:20:19;;;;;;;6.78;4.80;;;;;;;14.91;90.57;99996.78;4991178;28;20037;-74
2022/09/12 04:22:44;;;;;;;11.82;8.80;;;;;;;14.93;90.64;100005.56;4992083;28;20042;-72
2022/09/12 04:25:10;;;;;;;12.88;9.65;;;;;;;14.92;90.85;99998.41;5000301;28;20025;-71
2022/09/12 04:27:36;;;;;;;14.65;10.02;;;;;;;14.93;90.96;99995.34;4998645;28;20388;-71
2022/09/12 04:30:02;;;;;;;13.50;9.68;;;;;;;14.98;90.98;100002.69;5015070;28;20059;-72
2022/09/12 04:32:29;;;;;;;12.65;8.85;;;;;;;15.06;90.79;99990.97;4996351;28;20031;-71
2022/09/12 04:34:55;;;;;;;11.27;7.30;;;;;;;15.15;90.75;99991.06;5015235;28;20041;-71
2022/09/12 04:37:22;;;;;;;9.80;6.45;;;;;;;15.21;90.40;99989.03;5009552;28;20030;-70
2022/09/12 04:39:48;;;;;;;6.97;5.07;;;;;;;15.25;90.04;99985.34;5015244;28;20026;-71
2022/09/12 04:42:14;;;;;;;5.60;3.97;;;;;;;15.38;89.93;99978.19;5014860;28;20037;-72
2022/09/12 04:44:39;;;;;;;4.47;3.60;;;;;;;15.45;89.43;99978.59;4980695;28;20026;-70
2022/09/12 04:47:05;;;;;;;5.95;4.07;;;;;;;15.54;89.44;99982.22;4992589;28;20400;-71
2022/09/12 04:49:31;;;;;;;6.30;4.53;;;;;;;15.60;89.24;99980.19;5011856;28;20057;-72
2022/09/12 04:51:56;;;;;;;8.23;5.13;;;;;;;15.63;89.12;99979.56;4993816;28;20129;-71
2022/09/12 04:54:23;;;;;;;10.07;5.55;;;;;;;15.70;88.74;99979.13;4994966;28;20050;-71
2022/09/12 04:56:49;;;;;;;10.00;6.15;;;;;;;15.73;88.84;99984.03;4982368;28;20483;-71
2022/09/12 04:59:16;;;;;;;8.13;5.50;;;;;;;15.76;88.85;99983.41;4994834;28;20541;-72
2022/09/12 05:01:42;;;;;;;14.75;8.23;;;;;;;15.76;88.45;99986.16;5005898;28;20026;-72
2022/09/12 05:04:12;;;;;;;18.65;8.15;;;;;;;15.75;88.18;99989.22;5010403;28;20081;-72
2022/09/12 05:06:39;;;;;;;18.42;9.32;;;;;;;15.70;88.35;99990.16;5002393;28;20097;-72
2022/09/12 05:09:06;;;;;;;23.83;9.93;;;;;;;15.61;88.54;99975.47;4989284;28;20472;-72
2022/09/12 05:11:35;;;;;;;19.15;11.07;;;;;;;15.57;89.03;99971.72;4999673;28;20041;-73
2022/09/12 05:14:01;;;;;;;19.25;10.18;;;;;;;15.57;89.29;99980.00;5009605;28;20022;-71
2022/09/12 05:16:27;;;;;;;17.27;9.05;;;;;;;15.55;89.60;99983.06;5002107;28;20030;-71
2022/09/12 05:18:54;;;;;;;12.55;7.13;;;;;;;15.57;89.73;99978.03;4985133;28;20045;-72
2022/09/12 05:21:22;;;;;;;9.02;5.95;;;;;;;15.58;89.49;99979.69;5016879;28;20033;-71
2022/09/12 05:23:55;;;;;;;11.23;6.75;;;;;;;15.58;89.64;99970.59;5004389;28;20484;-71
2022/09/12 05:26:22;;;;;;;10.60;6.53;;;;;;;15.57;89.71;99968.97;5004626;28;20036;-71
2022/09/12 05:28:49;;;;;;;11.40;6.90;;;;;;;15.58;90.01;99967.81;4985908;28;20018;-72
2022/09/12 05:31:19;;;;;;;11.10;7.07;;;;;;;15.62;89.87;99971.59;4997734;28;20074;-71
2022/09/12 05:33:46;;;;;;;12.40;7.50;;;;;;;15.61;90.08;99975.47;5019859;28;20506;-72
2022/09/12 05:36:22;;;;;;;9.57;6.00;;;;;;;15.62;90.63;99985.38;4994376;28;20053;-73
2022/09/12 05:38:48;;;;;;;12.43;7.15;;;;;;;15.62;90.39;99985.38;4991011;28;20037;-71
2022/09/12 05:41:15;;;;;;;12.77;7.15;;;;;;;15.62;90.84;99977.09;5015751;28;20026;-73
2022/09/12 05:43:41;;;;;;;8.10;5.10;;;;;;;15.62;90.61;99977.09;5016824;28;20022;-73
2022/09/12 05:46:12;;;;;;;10.98;5.32;;;;;;;15.60;91.11;99979.38;4965455;28;20075;-70
2022/09/12 05:48:40;;;;;;;8.55;5.95;;;;;;;15.58;91.16;99981.59;5015009;28;20053;-70
2022/09/12 05:51:11;;;;;;;9.98;5.97;;;;;;;15.53;91.52;99975.06;4996528;28;20041;-70
2022/09/12 05:53:37;;;;;;;10.15;6.32;;;;;;;15.50;91.69;99969.38;4996677;28;20019;-75
2022/09/12 05:56:05;;;;;;;8.20;5.68;;;;;;;15.50;91.60;99974.91;4996533;28;20041;-75
2022/09/12 05:58:34;;;;;;;8.48;5.65;;;;;;;15.47;91.79;99972.75;5011294;28;20035;-75
2022/09/12 06:01:06;;;;;;;7.63;5.00;;;;;;;15.46;92.13;99985.75;4996657;28;20033;-76
2022/09/12 06:03:32;;;;;;;7.50;5.93;;;;;;;15.42;91.77;99983.88;5017369;28;20036;-75
2022/09/12 06:06:01;;;;;;;7.47;5.68;;;;;;;15.39;91.93;99977.06;5017141;28;20033;-71
2022/09/12 06:08:27;;;;;;;13.55;8.18;;;;;;;15.40;92.44;99986.94;5014117;28;20041;-70
2022/09/12 06:10:58;;;;;;;17.45;8.27;;;;;;;15.40;92.30;99983.38;5016674;28;20037;-72
2022/09/12 06:13:24;;;;;;;8.30;6.63;;;;;;;15.43;92.96;99980.81;5012837;28;20491;-71
2022/09/12 06:15:49;;;;;;;7.53;5.97;;;;;;;15.51;92.35;99980.09;4999090;28;20049;-71
2022/09/12 06:18:14;;;;;;;9.88;6.50;;;;;;;15.64;92.49;99983.16;4993497;28;20030;-69
2022/09/12 06:20:40;;;;;;;7.10;5.22;;;;;;;15.78;92.93;99986.66;4994419;28;20507;-72
2022/09/12 06:23:05;;;;;;;8.38;5.70;;;;;;;15.91;92.17;99984.19;4981373;28;20040;-71
2022/09/12 06:25:31;;;;;;;7.82;4.88;;;;;;;16.05;91.63;99990.47;4975119;28;20460;-71
2022/09/12 06:27:56;;;;;;;7.88;5.72;;;;;;;16.17;91.41;99993.47;5017284;28;20030;-69
2022/09/12 06:30:21;;;;;;;9.98;6.10;;;;;;;16.22;91.49;99990.59;4994605;28;20029;-71
2022/09/12 06:32:47;;;;;;;10.80;7.35;;;;;;;16.21;91.53;99994.47;5003674;28;20067;-69
2022/09/12 06:35:12;;;;;;;11.30;6.65;;;;;;;16.17;91.87;100001.75;4965728;28;20476;-69
2022/09/12 06:37:39;;;;;;;12.98;8.45;;;;;;;16.16;92.24;100008.38;5003119;28;20110;-70
2022/09/12 06:40:08;;;;;;;13.25;7.60;;;;;;;16.12;92.29;99995.53;5017349;28;20519;-69
2022/09/12 06:42:34;;;;;;;14.55;8.23;;;;;;;16.12;92.28;100001.03;5019604;28;20033;-69
2022/09/12 06:44:59;;;;;;;11.25;6.97;;;;;;;16.10;92.54;99984.00;5020610;28;20033;-70
2022/09/12 06:47:25;;;;;;;6.85;5.10;;;;;;;16.18;92.75;99988.78;5005767;28;20041;-70
2022/09/12 06:49:50;;;;;;;9.68;6.38;;;;;;;16.29;91.99;99994.84;5010262;28;20026;-69
2022/09/12 06:52:16;;;;;;;7.95;5.90;;;;;;;16.37;91.63;99996.84;4997634;28;20037;-70
2022/09/12 06:54:42;;;;;;;10.52;6.97;;;;;;;16.39;91.59;100000.09;4997679;28;20030;-73
2022/09/12 06:57:07;;;;;;;9.90;6.00;;;;;;;16.38;91.42;100010.31;4976807;28;20033;-73
2022/09/12 06:59:33;;;;;;;11.82;6.57;;;;;;;16.43;91.66;100012.13;4973344;28;20037;-74
2022/09/12 07:01:58;;;;;;;16.45;9.70;;;;;;;16.51;90.38;100014.13;4989271;28;20022;-72
2022/09/12 07:04:24;;;;;;;16.38;10.38;;;;;;;16.62;89.97;100008.31;4997206;28;20319;-75
2022/09/12 07:06:49;;;;;;;16.17;9.77;;;;;;;16.75;89.01;100013.75;4983412;28;20109;-77
2022/09/12 07:09:15;;;;;;;17.80;10.02;;;;;;;16.84;88.06;100005.53;4999179;28;20029;-73
2022/09/12 07:11:42;;;;;;;16.80;9.90;;;;;;;17.01;87.92;100015.03;5014034;28;20032;-73
2022/09/12 07:14:11;;;;;;;12.50;8.50;;;;;;;17.15;86.60;100009.41;4981940;28;20033;-72
2022/09/12 07:16:37;;;;;;;14.38;8.15;;;;;;;17.27;86.42;100007.66;4995231;28;21245;-72
2022/09/12 07:19:04;;;;;;;7.18;5.40;;;;;;;17.28;86.60;100009.25;5011581;28;20022;-72
2022/09/12 07:21:30;;;;;;;12.30;7.68;;;;;;;17.30;86.73;99997.09;4999616;28;20061;-74
2022/09/12 07:23:56;;;;;;;7.15;4.65;;;;;;;17.48;86.44;99996.00;4998289;28;20060;-73
2022/09/12 07:26:23;;;;;;;11.93;7.03;;;;;;;17.70;86.04;99994.22;4994587;28;20022;-72
2022/09/12 07:28:56;;;;;;;13.18;7.15;;;;;;;17.90;84.85;99996.38;4995738;28;20025;-73
2022/09/12 07:31:24;;;;;;;8.50;6.18;;;;;;;18.12;83.89;99997.31;4972211;28;20034;-72
2022/09/12 07:33:50;;;;;;;10.50;5.43;;;;;;;18.38;83.46;100004.78;4996046;28;20332;-72
2022/09/12 07:36:18;;;;;;;6.45;4.05;;;;;;;18.65;81.99;99998.84;5009150;28;20137;-73
2022/09/12 07:38:45;;;;;;;4.40;2.83;;;;;;;18.95;81.58;99998.94;4990277;28;20044;-73
2022/09/12 07:41:18;;;;;;;4.68;3.05;;;;;;;19.32;80.15;99999.22;5003031;28;20079;-73
2022/09/12 07:43:44;;;;;;;5.00;3.60;;;;;;;19.79;78.70;100006.56;5011996;28;20033;-72
2022/09/12 07:46:10;;;;;;;6.35;4.20;;;;;;;20.27;77.07;99998.81;5004766;28;20325;-72
2022/09/12 07:48:37;;;;;;;7.32;4.88;;;;;;;20.39;75.52;99996.06;5006033;28;20479;-75
2022/09/12 07:51:08;;;;;;;5.45;3.95;;;;;;;20.43;75.62;99984.25;5020017;28;20022;-74
2022/09/12 07:53:36;;;;;;;7.53;5.45;;;;;;;20.38;74.82;99990.84;5014717;28;20029;-71
2022/09/12 07:56:05;;;;;;;8.68;6.15;;;;;;;20.21;75.37;100002.97;5009626;28;20030;-72
2022/09/12 07:58:32;;;;;;;9.30;5.72;;;;;;;20.07;75.70;99996.88;5008360;28;20085;-74
2022/09/12 08:01:09;;;;;;;6.28;4.47;;;;;;;20.01;75.89;100002.63;5019691;28;20021;-72
2022/09/12 08:03:35;;;;;;;6.60;4.07;;;;;;;20.17;75.52;100010.34;5011685;28;20037;-73
2022/09/12 08:06:04;;;;;;;11.35;5.40;;;;;;;20.44;74.53;99997.00;5013322;28;20026;-72
2022/09/12 08:08:29;;;;;;;10.20;6.75;;;;;;;20.63;74.07;99988.94;5013261;28;20037;-73
2022/09/12 08:10:59;;;;;;;12.20;7.00;;;;;;;20.99;72.78;99997.69;4996651;28;20147;-73
2022/09/12 08:13:26;;;;;;;12.27;6.07;;;;;;;21.66;71.22;99997.44;5019432;28;20022;-71
2022/09/12 08:15:56;;;;;;;9.20;5.82;;;;;;;22.55;68.12;100006.72;5012797;28;20022;-73
2022/09/12 08:18:22;;;;;;;8.98;5.53;;;;;;;23.12;66.08;100008.19;5009363;28;20041;-73
2022/09/12 08:20:47;;;;;;;8.40;5.63;;;;;;;23.56;65.16;99998.03;5014629;28;20022;-73
2022/09/12 08:23:13;;;;;;;8.73;5.50;;;;;;;24.54;62.51;99988.44;5010048;28;20053;-72
2022/09/12 08:25:38;;;;;;;10.23;5.55;;;;;;;25.43;59.58;99990.34;5017102;28;20104;-73
2022/09/12 08:28:03;;;;;;;7.88;5.03;;;;;;;26.28;56.96;99989.03;5019218;28;20034;-73
2022/09/12 08:30:29;;;;;;;9.05;4.00;;;;;;;26.79;55.52;100001.56;5012907;28;20030;-73
2022/09/12 08:32:54;;;;;;;8.13;4.15;;;;;;;26.64;54.88;99997.81;5014733;28;20045;-73
2022/09/12 08:35:19;;;;;;;9.95;3.60;;;;;;;26.13;56.17;99985.25;5008298;28;20032;-73
2022/09/12 08:37:45;;;;;;;6.18;3.55;;;;;;;26.05;57.13;99980.75;4998793;28;20037;-74
2022/09/12 08:40:16;;;;;;;4.25;2.60;;;;;;;27.10;55.15;99991.81;5001059;28;20025;-72
2022/09/12 08:43:14;;;;;;;4.18;3.20;;;;;;;29.20;50.84;99996.16;5017312;28;20484;-73
2022/09/12 08:45:52;;;;;;;3.33;2.13;;;;;;;29.68;49.05;99998.47;4972847;28;20038;-72
2022/09/12 08:48:17;;;;;;;2.63;1.90;;;;;;;29.03;49.63;99998.59;5022171;28;20041;-71
2022/09/12 08:50:44;;;;;;;4.95;2.00;;;;;;;27.46;52.07;99994.88;5013552;28;20030;-72
2022/09/12 08:53:15;;;;;;;2.72;2.10;;;;;;;26.18;54.67;100000.91;4993298;28;20036;-70
2022/09/12 08:55:43;;;;;;;4.35;2.45;;;;;;;25.15;57.53;100001.88;5011779;28;20022;-71
2022/09/12 08:58:15;;;;;;;2.28;1.80;;;;;;;24.63;59.47;99995.81;4998509;28;20022;-71
2022/09/12 09:01:15;;;;;;;2.72;1.83;;;;;;;24.15;60.53;100001.66;4989768;28;20052;-71
2022/09/12 09:04:06;;;;;;;4.90;2.47;;;;;;;23.82;62.03;100000.19;5000537;28;20021;-70
2022/09/12 09:07:00;;;;;;;6.18;2.47;;;;;;;23.53;63.42;99988.41;5024384;28;20037;-71
2022/09/12 09:09:44;;;;;;;8.25;3.17;;;;;;;23.61;63.64;100006.09;5008144;28;20045;-70
2022/09/12 09:12:34;;;;;;;4.37;2.50;;;;;;;23.80;63.42;99997.78;4996724;28;20120;-71
2022/09/12 09:15:24;;;;;;;2.25;1.88;;;;;;;24.37;61.61;100002.91;4998791;28;20323;-71
2022/09/12 09:18:00;;;;;;;4.82;3.28;;;;;;;24.66;60.26;99995.91;5014533;28;20026;-71
2022/09/12 09:20:42;;;;;;;2.85;2.20;;;;;;;24.89;60.61;99983.88;5017463;28;20085;-71
2022/09/12 09:23:32;;;;;;;4.18;2.40;;;;;;;25.35;59.53;99985.81;5002223;28;20478;-70
2022/09/12 09:26:09;;;;;;;3.15;1.98;;;;;;;25.59;58.76;99988.16;5005624;28;20060;-71
2022/09/12 09:28:54;;;;;;;2.90;1.52;;;;;;;25.80;58.14;99981.22;5007590;28;20025;-72
2022/09/12 09:31:22;;;;;;;3.03;1.65;;;;;;;26.18;57.62;99982.13;5014227;28;20449;-72
2022/09/12 09:33:56;;;;;;;2.63;1.73;;;;;;;26.69;56.52;99980.63;4998623;28;20022;-72
2022/09/12 09:36:21;;;;;;;;;;;;;;;28.91;53.25;99990.53;5012085;28;20037;-73
2022/09/12 09:38:48;;;;;;;3.13;1.50;;;;;;;31.61;46.90;99997.59;5019347;28;19979;-71
2022/09/12 09:41:52;;;;;;;2.75;1.17;;;;;;;34.57;41.54;99999.03;5026035;28;20426;-72
2022/09/12 09:44:18;;;;;;;1.13;0.75;;;;;;;34.85;39.86;99988.25;4988750;28;20113;-71
2022/09/12 09:46:43;;;;;;;2.67;1.10;;;;;;;35.22;38.44;99993.81;5029821;28;20120;-72
2022/09/12 09:49:13;;;;;;;1.85;0.90;;;;;;;34.58;37.86;99989.28;5009121;28;20034;-72
2022/09/12 09:51:40;;;;;;;1.02;0.80;;;;;;;34.29;38.18;99977.81;5026357;28;20029;-70
2022/09/12 09:54:22;;;;;;;1.50;0.90;;;;;;;32.19;40.26;99972.25;5025739;28;20030;-69
2022/09/12 09:56:48;;;;;;;1.70;1.05;;;;;;;30.22;43.26;99969.28;5028027;28;20040;-72
2022/09/12 09:59:16;;;;;;;1.35;0.93;;;;;;;28.43;46.22;99965.56;5004967;28;20555;-70
2022/09/12 10:02:02;;;;;;;2.08;0.93;;;;;;;27.02;49.48;99959.28;5007725;28;20078;-70
2022/09/12 10:04:37;;;;;;;1.35;0.90;;;;;;;26.40;51.32;99968.31;5015430;28;20026;-74
2022/09/12 10:07:04;;;;;;;1.08;0.80;;;;;;;26.65;51.93;99960.97;5022872;28;20025;-73
2022/09/12 10:09:33;;;;;;;1.45;0.77;;;;;;;30.46;46.27;99961.88;5016613;28;20439;-72
2022/09/12 10:12:01;;;;;;;2.47;1.10;;;;;;;34.64;36.19;99966.03;5022618;28;20034;-70
2022/09/12 10:14:40;;;;;;;1.40;0.80;;;;;;;36.27;33.32;99978.22;5021553;28;20034;-71
2022/09/12 10:17:21;;;;;;;4.57;1.05;;;;;;;38.37;29.66;99978.19;5017266;28;20045;-71
2022/09/12 10:19:46;;;;;;;1.92;1.05;;;;;;;37.71;31.07;99972.56;5014965;28;20056;-72
2022/09/12 10:22:19;;;;;;;2.53;1.10;;;;;;;35.74;33.28;99983.47;5018466;28;20029;-71
2022/09/12 10:24:52;;;;;;;2.08;0.70;;;;;;;35.73;34.09;99981.88;5024951;28;20411;-73
2022/09/12 10:27:20;;;;;;;;;;;;;;;38.24;31.89;99977.50;5015216;28;20097;-72
2022/09/12 10:30:02;;;;;;;1.75;0.63;;;;;;;40.54;28.97;99989.50;5016499;28;20226;-72
2022/09/12 10:32:29;;;;;;;2.03;0.75;;;;;;;42.74;25.23;99992.09;5022892;28;20105;-71
2022/09/12 10:35:06;;;;;;;2.28;0.80;;;;;;;44.26;22.29;99983.59;5024415;28;20449;-72
2022/09/12 10:37:35;;;;;;;3.33;0.90;;;;;;;45.23;21.18;99985.72;5026640;28;20033;-71
2022/09/12 10:40:03;;;;;;;1.58;0.85;;;;;;;45.14;21.12;99977.31;5016143;28;20083;-71
2022/09/12 10:42:43;;;;;;;1.95;0.75;;;;;;;46.34;20.95;99982.75;5022765;28;20022;-73
2022/09/12 10:45:19;;;;;;;1.95;0.80;;;;;;;45.35;21.17;99980.00;5015481;28;20045;-72
2022/09/12 10:47:45;;;;;;;0.65;0.43;;;;;;;46.20;20.78;99978.03;5017083;28;20029;-74
2022/09/12 10:50:25;;;;;;;1.30;0.68;;;;;;;47.22;18.68;99986.44;4995999;28;20522;-73
2022/09/12 10:52:52;;;;;;;1.77;0.73;;;;;;;47.13;17.69;99981.75;5007709;28;20037;-73
2022/09/12 10:55:27;;;;;;;1.58;0.60;;;;;;;45.52;18.63;99971.38;4997575;28;20052;-72
2022/09/12 10:58:08;;;;;;;1.60;0.95;;;;;;;44.14;20.02;99973.28;5017606;28;20476;-71
2022/09/12 11:00:39;;;;;;;1.50;0.82;;;;;;;42.15;22.33;99972.88;5018340;28;20033;-71
2022/09/12 11:03:22;;;;;;;1.50;0.90;;;;;;;38.89;25.45;99969.19;4999583;28;20034;-72
2022/09/12 11:06:00;;;;;;;2.40;0.90;;;;;;;36.45;27.30;99956.94;5018673;28;20018;-71
2022/09/12 11:08:43;;;;;;;1.48;0.75;;;;;;;35.63;27.89;99956.16;4996491;28;20036;-75
2022/09/12 11:11:34;;;;;;;1.63;0.75;;;;;;;35.43;28.45;99949.84;4981010;28;20042;-72
2022/09/12 11:14:27;;;;;;;3.10;0.82;;;;;;;38.65;24.81;99949.72;5006010;28;20025;-71
2022/09/12 11:17:05;;;;;;;0.90;0.75;;;;;;;37.48;24.71;99945.31;4994514;28;20025;-72
2022/09/12 11:19:49;;;;;;;1.33;0.60;;;;;;;35.26;27.81;99932.78;5015008;28;20041;-73
2022/09/12 11:22:20;;;;;;;0.98;0.68;;;;;;;34.51;29.59;99924.19;5009993;28;20614;-72
2022/09/12 11:25:04;;;;;;;1.35;0.80;;;;;;;34.50;30.26;99928.25;5001005;28;20168;-72
2022/09/12 11:28:22;;;;;;;2.60;0.88;;;;;;;35.16;29.45;99931.03;5002540;28;20021;-71
2022/09/12 11:31:00;;;;;;;1.00;0.73;;;;;;;38.29;26.16;99933.28;5001286;28;20064;-72
2022/09/12 11:33:34;;;;;;;3.60;1.00;;;;;;;42.26;20.34;99932.06;5002765;28;20033;-71
2022/09/12 11:36:03;;;;;;;1.00;0.68;;;;;;;45.10;18.57;99933.50;5000191;28;20033;-71
2022/09/12 11:38:35;;;;;;;2.33;1.02;;;;;;;47.85;16.14;99941.28;4991987;28;20080;-71
2022/09/12 11:41:08;;;;;;;2.10;0.80;;;;;;;48.82;15.27;99941.09;5006026;28;20026;-73
2022/09/12 11:43:56;;;;;;;0.98;0.80;;;;;;;49.60;14.89;99934.75;5007242;28;20045;-72
2022/09/12 11:46:41;;;;;;;10.30;2.55;;;;;;;49.79;12.89;99941.28;4986317;28;20072;-73